createdAt,value
2019-06-27T00:00:51.799Z,98898.98
2019-06-27T00:03:22.344Z,98891.75
2019-06-27T00:05:52.984Z,98892.84
2019-06-27T00:08:23.508Z,98892.28
2019-06-27T00:10:54.165Z,98895.77
2019-06-27T00:13:24.865Z,98900.82
2019-06-27T00:15:55.383Z,98900.28
2019-06-27T00:18:26.000Z,98900.55
2019-06-27T00:21:00.904Z,98901.08
2019-06-27T00:23:31.655Z,98895.46
2019-06-27T00:26:02.162Z,98893.84
2019-06-27T00:28:32.768Z,98894.11
2019-06-27T00:31:03.435Z,98889.27
2019-06-27T00:33:34.194Z,98888.74
2019-06-27T00:36:04.812Z,98890.89
2019-06-27T00:38:35.410Z,98893.82
2019-06-27T00:41:06.002Z,98896.48
2019-06-27T00:43:36.617Z,98896.48
2019-06-27T00:46:07.182Z,98892.75
2019-06-27T00:48:37.855Z,98899.45
2019-06-27T00:51:08.365Z,98904.27
2019-06-27T00:53:38.981Z,98900.26
2019-06-27T00:56:09.519Z,98898.89
2019-06-27T00:58:40.110Z,98900.76
2019-06-27T01:01:10.730Z,98905.31
2019-06-27T01:03:41.261Z,98904.25
2019-06-27T01:06:11.887Z,98904.25
2019-06-27T01:08:42.464Z,98901.85
2019-06-27T01:11:13.105Z,98903.45
2019-06-27T01:13:43.719Z,98904.50
2019-06-27T01:16:14.316Z,98906.13
2019-06-27T01:18:44.958Z,98908.52
2019-06-27T01:21:15.507Z,98904.23
2019-06-27T01:23:46.143Z,98913.08
2019-06-27T01:26:16.779Z,98908.78
2019-06-27T01:28:47.544Z,98909.30
2019-06-27T01:31:18.174Z,98920.28
2019-06-27T01:33:48.711Z,98927.50
2019-06-27T01:36:19.250Z,98921.05
2019-06-27T01:38:49.889Z,98922.08
2019-06-27T01:41:20.468Z,98920.17
2019-06-27T01:43:52.497Z,98927.68
2019-06-27T01:46:23.104Z,98923.34
2019-06-27T01:48:53.709Z,98923.62
2019-06-27T01:51:24.249Z,98926.30
2019-06-27T01:53:54.867Z,98920.38
2019-06-27T01:56:25.440Z,98916.11
2019-06-27T01:58:55.987Z,98920.38
2019-06-27T02:01:26.665Z,98920.33
2019-06-27T02:03:57.220Z,98926.17
2019-06-27T02:06:29.612Z,98916.20
2019-06-27T02:09:00.202Z,98924.47
2019-06-27T02:11:30.723Z,98927.96
2019-06-27T02:14:01.427Z,98925.27
2019-06-27T02:16:31.956Z,98928.73
2019-06-27T02:19:02.589Z,98927.13
2019-06-27T02:21:33.153Z,98929.69
2019-06-27T02:24:03.811Z,98922.69
2019-06-27T02:26:34.407Z,98927.52
2019-06-27T02:29:04.961Z,98928.25
2019-06-27T02:31:35.561Z,98921.81
2019-06-27T02:34:07.046Z,98926.63
2019-06-27T02:36:37.948Z,98926.63
2019-06-27T02:39:09.233Z,98926.63
2019-06-27T02:41:40.212Z,98929.30
2019-06-27T02:44:10.944Z,98929.02
2019-06-27T02:46:41.507Z,98923.29
2019-06-27T02:49:12.081Z,98925.95
2019-06-27T02:51:42.614Z,98930.25
2019-06-27T02:54:13.180Z,98931.59
2019-06-27T02:56:44.465Z,98929.95
2019-06-27T02:59:15.092Z,98925.94
2019-06-27T03:01:45.642Z,98931.74
2019-06-27T03:04:16.497Z,98932.80
2019-06-27T03:06:47.030Z,98928.50
2019-06-27T03:09:17.668Z,98926.61
2019-06-27T03:11:48.208Z,98920.16
2019-06-27T03:14:18.800Z,98925.73
2019-06-27T03:16:49.327Z,98919.83
2019-06-27T03:19:19.889Z,98923.73
2019-06-27T03:21:50.492Z,98915.94
2019-06-27T03:24:21.093Z,98915.65
2019-06-27T03:26:51.699Z,98922.03
2019-06-27T03:29:22.277Z,98919.93
2019-06-27T03:31:52.940Z,98920.17
2019-06-27T03:34:23.619Z,98915.05
2019-06-27T03:36:54.213Z,98921.72
2019-06-27T03:39:24.950Z,98920.86
2019-06-27T03:41:55.485Z,98924.59
2019-06-27T03:44:26.057Z,98929.09
2019-06-27T03:46:56.630Z,98923.97
2019-06-27T03:49:27.176Z,98919.42
2019-06-27T03:51:57.887Z,98930.05
2019-06-27T03:54:28.429Z,98920.92
2019-06-27T03:56:59.279Z,98928.91
2019-06-27T03:59:30.006Z,98932.05
2019-06-27T04:02:00.533Z,98938.98
2019-06-27T04:04:31.115Z,98947.52
2019-06-27T04:07:01.802Z,98944.06
2019-06-27T04:09:34.081Z,98946.73
2019-06-27T04:12:04.725Z,98947.27
2019-06-27T04:14:35.286Z,98947.45
2019-06-27T04:17:05.770Z,98946.27
2019-06-27T04:19:36.577Z,98949.13
2019-06-27T04:22:07.209Z,98946.46
2019-06-27T04:24:37.848Z,98953.06
2019-06-27T04:27:08.469Z,98956.48
2019-06-27T04:29:39.293Z,98959.91
2019-06-27T04:32:09.835Z,98960.01
2019-06-27T04:34:40.400Z,98960.30
2019-06-27T04:37:10.997Z,98963.67
2019-06-27T04:39:41.559Z,98965.27
2019-06-27T04:42:12.179Z,98973.01
2019-06-27T04:44:42.769Z,98980.00
2019-06-27T04:47:13.311Z,98982.58
2019-06-27T04:49:43.930Z,98979.22
2019-06-27T04:52:14.638Z,98992.09
2019-06-27T04:54:45.309Z,98988.88
2019-06-27T04:57:15.867Z,98986.47
2019-06-27T04:59:53.561Z,98987.11
2019-06-27T05:02:18.747Z,98991.11
2019-06-27T05:04:49.335Z,98994.16
2019-06-27T05:07:19.993Z,98992.72
2019-06-27T05:09:50.545Z,98999.17
2019-06-27T05:12:21.119Z,98994.06
2019-06-27T05:14:51.706Z,99005.42
2019-06-27T05:17:23.739Z,98995.85
2019-06-27T05:19:54.391Z,98995.85
2019-06-27T05:22:24.985Z,99009.62
2019-06-27T05:24:55.543Z,99000.41
2019-06-27T05:27:26.158Z,99007.77
2019-06-27T05:30:08.687Z,99001.91
2019-06-27T05:32:29.065Z,99006.78
2019-06-27T05:34:59.631Z,99016.97
2019-06-27T05:37:30.207Z,99011.76
2019-06-27T05:40:00.860Z,99016.08
2019-06-27T05:42:31.464Z,99007.91
2019-06-27T05:45:02.089Z,99018.87
2019-06-27T05:47:32.636Z,99018.58
2019-06-27T05:50:03.286Z,99020.84
2019-06-27T05:52:33.911Z,99012.63
2019-06-27T05:55:04.577Z,99022.61
2019-06-27T05:57:35.167Z,99020.36
2019-06-27T06:00:05.947Z,99021.70
2019-06-27T06:02:36.515Z,99023.61
2019-06-27T06:05:08.062Z,99030.38
2019-06-27T06:07:38.607Z,99028.42
2019-06-27T06:10:09.463Z,99030.75
2019-06-27T06:12:39.991Z,99031.85
2019-06-27T06:15:10.701Z,99027.52
2019-06-27T06:17:41.232Z,99027.55
2019-06-27T06:20:12.529Z,99024.95
2019-06-27T06:22:43.217Z,99026.74
2019-06-27T06:25:13.792Z,99025.44
2019-06-27T06:27:44.406Z,99020.42
2019-06-27T06:30:16.663Z,99025.37
2019-06-27T06:32:47.269Z,99026.54
2019-06-27T06:35:17.788Z,99027.35
2019-06-27T06:37:48.419Z,99025.58
2019-06-27T06:40:19.014Z,99023.09
2019-06-27T06:42:49.610Z,99019.77
2019-06-27T06:45:20.313Z,99022.81
2019-06-27T06:47:50.915Z,99028.26
2019-06-27T06:50:23.549Z,99018.70
2019-06-27T06:52:53.908Z,99013.17
2019-06-27T06:55:24.477Z,99021.83
2019-06-27T06:57:55.083Z,99027.25
2019-06-27T07:00:25.838Z,99025.64
2019-06-27T07:02:56.481Z,99031.09
2019-06-27T07:05:27.065Z,99031.42
2019-06-27T07:07:57.678Z,99030.25
2019-06-27T07:10:28.267Z,99032.47
2019-06-27T07:12:58.886Z,99025.56
2019-06-27T07:15:29.493Z,99028.84
2019-06-27T07:18:00.071Z,99032.63
2019-06-27T07:20:30.700Z,99035.04
2019-06-27T07:23:01.366Z,99033.75
2019-06-27T07:25:32.111Z,99032.97
2019-06-27T07:28:02.657Z,99033.32
2019-06-27T07:30:33.366Z,99031.42
2019-06-27T07:33:03.958Z,99030.34
2019-06-27T07:35:34.583Z,99020.84
2019-06-27T07:38:05.127Z,99028.40
2019-06-27T07:40:35.750Z,99026.28
2019-06-27T07:43:06.343Z,99024.42
2019-06-27T07:45:36.984Z,99025.36
2019-06-27T07:48:07.628Z,99029.73
2019-06-27T07:50:38.233Z,99021.64
2019-06-27T07:53:08.801Z,99028.14
2019-06-27T07:55:39.482Z,99029.84
2019-06-27T07:58:10.064Z,99029.09
2019-06-27T08:00:40.685Z,99027.02
2019-06-27T08:03:11.252Z,99032.15
2019-06-27T08:05:41.864Z,99022.80
2019-06-27T08:08:12.442Z,99027.45
2019-06-27T08:10:43.077Z,99026.70
2019-06-27T08:13:13.606Z,99026.77
2019-06-27T08:15:44.222Z,99023.57
2019-06-27T08:18:14.738Z,99024.11
2019-06-27T08:20:45.420Z,99021.48
2019-06-27T08:23:16.011Z,99024.19
2019-06-27T08:25:46.600Z,99019.13
2019-06-27T08:28:17.214Z,99017.59
2019-06-27T08:30:47.814Z,99023.23
2019-06-27T08:33:18.701Z,99022.45
2019-06-27T08:35:49.346Z,99017.38
2019-06-27T08:38:19.892Z,99013.66
2019-06-27T08:40:50.584Z,99016.09
2019-06-27T08:43:21.167Z,99018.56
2019-06-27T08:45:51.866Z,99019.95
2019-06-27T08:48:22.431Z,99009.52
2019-06-27T08:50:53.106Z,99015.69
2019-06-27T08:53:23.702Z,99010.91
2019-06-27T08:55:54.310Z,99011.95
2019-06-27T08:58:24.886Z,99006.91
2019-06-27T09:00:55.485Z,99014.96
2019-06-27T09:03:26.079Z,99013.38
2019-06-27T09:05:56.747Z,99010.16
2019-06-27T09:08:27.293Z,99010.98
2019-06-27T09:10:57.919Z,99015.28
2019-06-27T09:13:28.490Z,99017.44
2019-06-27T09:15:59.178Z,99017.71
2019-06-27T09:18:29.753Z,99017.74
2019-06-27T09:21:00.370Z,99013.72
2019-06-27T09:23:30.902Z,99016.13
2019-06-27T09:26:01.523Z,99010.48
2019-06-27T09:28:32.116Z,99018.55
2019-06-27T09:31:02.720Z,99013.16
2019-06-27T09:33:33.331Z,99017.21
2019-06-27T09:36:03.967Z,99006.48
2019-06-27T09:38:34.573Z,99013.75
2019-06-27T09:41:05.238Z,99010.56
2019-06-27T09:43:35.778Z,99014.59
2019-06-27T09:46:06.445Z,99014.59
2019-06-27T09:48:37.029Z,99016.48
2019-06-27T09:51:07.662Z,99007.38
2019-06-27T09:53:38.438Z,99016.77
2019-06-27T09:56:09.053Z,99015.70
2019-06-27T09:58:39.565Z,99009.27
2019-06-27T10:01:10.228Z,99011.44
2019-06-27T10:03:40.920Z,99005.25
2019-06-27T10:06:11.556Z,98999.90
2019-06-27T10:08:42.121Z,99001.25
2019-06-27T10:11:13.606Z,98998.83
2019-06-27T10:13:44.204Z,98999.89
2019-06-27T10:16:14.777Z,98993.20
2019-06-27T10:18:45.342Z,99000.72
2019-06-27T10:21:15.976Z,98997.50
2019-06-27T10:23:46.606Z,98996.98
2019-06-27T10:26:17.272Z,98996.72
2019-06-27T10:28:47.842Z,99003.70
2019-06-27T10:31:18.470Z,98998.86
2019-06-27T10:33:49.055Z,98987.03
2019-06-27T10:36:19.678Z,98988.66
2019-06-27T10:38:50.221Z,98987.02
2019-06-27T10:41:20.864Z,98989.17
2019-06-27T10:43:51.491Z,98984.59
2019-06-27T10:46:22.060Z,98985.39
2019-06-27T10:48:53.440Z,98983.26
2019-06-27T10:51:24.035Z,98983.51
2019-06-27T10:53:54.639Z,98978.66
2019-06-27T10:56:25.214Z,98979.47
2019-06-27T10:58:55.795Z,98984.27
2019-06-27T11:01:26.421Z,98981.62
2019-06-27T11:03:56.979Z,98981.60
2019-06-27T11:06:27.545Z,98983.45
2019-06-27T11:08:58.150Z,98983.72
2019-06-27T11:11:28.778Z,98985.61
2019-06-27T11:13:59.652Z,98973.48
2019-06-27T11:16:30.584Z,98979.92
2019-06-27T11:19:01.344Z,98969.42
2019-06-27T11:21:32.432Z,98966.95
2019-06-27T11:24:02.977Z,98975.00
2019-06-27T11:26:33.558Z,98972.56
2019-06-27T11:29:04.152Z,98974.95
2019-06-27T11:31:34.749Z,98973.34
2019-06-27T11:34:05.348Z,98959.91
2019-06-27T11:36:35.924Z,98956.11
2019-06-27T11:39:08.048Z,98949.37
2019-06-27T11:41:38.630Z,98961.43
2019-06-27T11:44:09.185Z,98960.66
2019-06-27T11:46:39.826Z,98956.63
2019-06-27T11:49:10.315Z,98954.45
2019-06-27T11:51:40.930Z,98943.40
2019-06-27T11:54:11.463Z,98940.66
2019-06-27T11:56:42.111Z,98945.97
2019-06-27T11:59:12.692Z,98944.59
2019-06-27T12:01:43.803Z,98937.58
2019-06-27T12:04:14.445Z,98943.98
2019-06-27T12:06:45.095Z,98940.78
2019-06-27T12:09:15.627Z,98937.50
2019-06-27T12:11:46.254Z,98937.80
2019-06-27T12:14:16.805Z,98936.16
2019-06-27T12:16:47.507Z,98941.52
2019-06-27T12:19:18.124Z,98932.80
2019-06-27T12:21:48.699Z,98936.01
2019-06-27T12:24:19.271Z,98936.81
2019-06-27T12:26:49.857Z,98932.23
2019-06-27T12:29:20.481Z,98931.43
2019-06-27T12:31:51.851Z,98933.31
2019-06-27T12:34:22.785Z,98927.63
2019-06-27T12:36:53.383Z,98928.11
2019-06-27T12:39:23.915Z,98922.18
2019-06-27T12:41:54.563Z,98915.41
2019-06-27T12:44:25.283Z,98918.81
2019-06-27T12:46:55.949Z,98914.97
2019-06-27T12:49:44.449Z,98915.74
2019-06-27T12:51:59.004Z,98922.67
2019-06-27T12:54:29.620Z,98923.20
2019-06-27T12:57:00.224Z,98921.21
2019-06-27T12:59:30.783Z,98905.85
2019-06-27T13:02:01.386Z,98916.27
2019-06-27T13:04:31.958Z,98917.31
2019-06-27T13:07:02.584Z,98903.75
2019-06-27T13:09:33.114Z,98905.05
2019-06-27T13:12:03.747Z,98903.92
2019-06-27T13:14:34.339Z,98892.03
2019-06-27T13:17:04.993Z,98895.74
2019-06-27T13:19:35.565Z,98884.83
2019-06-27T13:22:07.143Z,98888.59
2019-06-27T13:24:37.743Z,98888.72
2019-06-27T13:27:08.357Z,98883.48
2019-06-27T13:29:38.927Z,98884.82
2019-06-27T13:32:09.563Z,98892.28
2019-06-27T13:34:41.130Z,98890.02
2019-06-27T13:37:12.084Z,98882.63
2019-06-27T13:39:42.611Z,98889.37
2019-06-27T13:42:13.325Z,98888.03
2019-06-27T13:44:43.941Z,98883.83
2019-06-27T13:47:14.558Z,98874.27
2019-06-27T13:49:45.545Z,98867.11
2019-06-27T13:52:16.234Z,98875.38
2019-06-27T13:54:46.857Z,98884.73
2019-06-27T13:57:17.451Z,98873.87
2019-06-27T13:59:48.011Z,98866.80
2019-06-27T14:02:18.620Z,98867.09
2019-06-27T14:04:56.926Z,98869.72
2019-06-27T14:07:21.560Z,98867.72
2019-06-27T14:09:56.937Z,98862.52
2019-06-27T14:12:24.468Z,98866.23
2019-06-27T14:14:59.631Z,98866.98
2019-06-27T14:17:27.373Z,98862.53
2019-06-27T14:19:57.975Z,98862.07
2019-06-27T14:22:33.588Z,98862.12
2019-06-27T14:25:00.840Z,98861.58
2019-06-27T14:27:33.036Z,98863.36
2019-06-27T14:30:03.653Z,98870.66
2019-06-27T14:32:34.322Z,98861.44
2019-06-27T14:35:15.239Z,98876.45
2019-06-27T14:37:37.415Z,98870.08
2019-06-27T14:40:08.131Z,98855.78
2019-06-27T14:42:38.744Z,98859.67
2019-06-27T14:45:10.146Z,98863.03
2019-06-27T14:47:42.743Z,98858.59
2019-06-27T14:50:14.658Z,98861.13
2019-06-27T14:52:45.249Z,98864.41
2019-06-27T14:55:15.924Z,98859.45
2019-06-27T14:57:46.586Z,98850.01
2019-06-27T15:00:18.082Z,98856.54
2019-06-27T15:02:48.775Z,98845.61
2019-06-27T15:05:31.865Z,98846.53
2019-06-27T15:07:51.917Z,98847.81
2019-06-27T15:10:23.328Z,98846.76
2019-06-27T15:12:57.275Z,98843.17
2019-06-27T15:15:26.544Z,98841.08
2019-06-27T15:17:57.208Z,98838.04
2019-06-27T15:20:27.785Z,98834.88
2019-06-27T15:22:58.382Z,98835.06
2019-06-27T15:25:28.922Z,98843.47
2019-06-27T15:27:59.631Z,98840.19
2019-06-27T15:30:31.397Z,98839.98
2019-06-27T15:33:02.996Z,98843.88
2019-06-27T15:35:50.930Z,98847.70
2019-06-27T15:38:07.917Z,98842.70
2019-06-27T15:40:39.437Z,98848.30
2019-06-27T15:43:10.053Z,98842.95
2019-06-27T15:45:40.653Z,98840.40
2019-06-27T15:48:11.307Z,98838.06
2019-06-27T15:50:41.834Z,98841.67
2019-06-27T15:53:12.513Z,98844.21
2019-06-27T15:55:43.073Z,98842.14
2019-06-27T15:58:13.678Z,98847.01
2019-06-27T16:00:44.257Z,98841.58
2019-06-27T16:03:14.864Z,98832.01
2019-06-27T16:05:45.448Z,98842.14
2019-06-27T16:08:16.062Z,98838.16
2019-06-27T16:10:46.721Z,98834.63
2019-06-27T16:13:17.337Z,98840.06
2019-06-27T16:15:47.862Z,98835.20
2019-06-27T16:18:18.499Z,98828.00
2019-06-27T16:20:49.135Z,98835.23
2019-06-27T16:23:20.725Z,98827.14
2019-06-27T16:25:52.288Z,98824.20
2019-06-27T16:28:26.612Z,98824.06
2019-06-27T16:30:55.313Z,98819.59
2019-06-27T16:33:26.656Z,98819.87
2019-06-27T16:35:57.375Z,98817.17
2019-06-27T16:38:30.032Z,98830.20
2019-06-27T16:41:04.324Z,98827.86
2019-06-27T16:43:34.950Z,98831.07
2019-06-27T16:46:05.496Z,98833.86
2019-06-27T16:48:36.124Z,98833.36
2019-06-27T16:51:12.685Z,98832.56
2019-06-27T16:53:44.402Z,98829.67
2019-06-27T16:56:14.970Z,98832.89
2019-06-27T16:58:45.597Z,98827.74
2019-06-27T17:01:18.629Z,98828.66
2019-06-27T17:03:49.305Z,98816.07
2019-06-27T17:06:19.902Z,98825.78
2019-06-27T17:08:50.574Z,98819.59
2019-06-27T17:11:21.146Z,98834.02
2019-06-27T17:13:51.976Z,98825.70
2019-06-27T17:16:22.676Z,98832.04
2019-06-27T17:18:53.364Z,98832.31
2019-06-27T17:21:26.893Z,98828.74
2019-06-27T17:23:56.571Z,98830.92
2019-06-27T17:26:27.138Z,98830.67
2019-06-27T17:29:04.107Z,98824.28
2019-06-27T17:31:34.781Z,98827.70
2019-06-27T17:34:05.400Z,98829.76
2019-06-27T17:36:35.957Z,98832.34
2019-06-27T17:39:07.298Z,98839.81
2019-06-27T17:41:37.925Z,98836.67
2019-06-27T17:44:08.536Z,98840.92
2019-06-27T17:46:39.087Z,98837.94
2019-06-27T17:49:09.748Z,98839.82
2019-06-27T17:51:40.332Z,98827.03
2019-06-27T17:54:11.083Z,98836.30
2019-06-27T17:56:41.668Z,98838.88
2019-06-27T17:59:12.260Z,98841.59
2019-06-27T18:01:42.811Z,98847.66
2019-06-27T18:04:15.855Z,98847.17
2019-06-27T18:06:46.426Z,98841.47
2019-06-27T18:09:17.113Z,98845.03
2019-06-27T18:11:47.659Z,98842.90
2019-06-27T18:14:18.323Z,98844.19
2019-06-27T18:16:48.932Z,98842.25
2019-06-27T18:19:19.573Z,98841.23
2019-06-27T18:21:50.141Z,98842.87
2019-06-27T18:24:20.773Z,98835.57
2019-06-27T18:26:52.361Z,98844.16
2019-06-27T18:29:23.053Z,98840.09
2019-06-27T18:31:53.915Z,98837.89
2019-06-27T18:34:26.618Z,98844.98
2019-06-27T18:36:57.351Z,98845.42
2019-06-27T18:39:29.275Z,98846.08
2019-06-27T18:41:59.826Z,98850.73
2019-06-27T18:44:31.121Z,98848.42
2019-06-27T18:47:01.708Z,98855.03
2019-06-27T18:49:32.334Z,98852.41
2019-06-27T18:52:02.953Z,98854.59
2019-06-27T18:54:33.564Z,98850.31
2019-06-27T18:57:04.108Z,98848.43
2019-06-27T18:59:34.770Z,98850.73
2019-06-27T19:02:06.353Z,98855.45
2019-06-27T19:04:36.985Z,98851.41
2019-06-27T19:07:07.552Z,98854.39
2019-06-27T19:09:38.228Z,98848.58
2019-06-27T19:12:08.801Z,98852.39
2019-06-27T19:14:39.439Z,98846.77
2019-06-27T19:17:10.078Z,98851.95
2019-06-27T19:19:42.441Z,98849.56
2019-06-27T19:22:31.893Z,98856.61
2019-06-27T19:25:07.814Z,98850.70
2019-06-27T19:27:39.385Z,98852.88
2019-06-27T19:30:14.332Z,98854.55
2019-06-27T19:32:44.920Z,98855.14
2019-06-27T19:35:15.969Z,98854.12
2019-06-27T19:38:00.882Z,98861.91
2019-06-27T19:40:19.519Z,98860.59
2019-06-27T19:42:50.789Z,98867.83
2019-06-27T19:45:24.606Z,98874.83
2019-06-27T19:47:55.178Z,98874.30
2019-06-27T19:50:25.913Z,98878.59
2019-06-27T19:52:56.539Z,98878.59
2019-06-27T19:55:27.201Z,98890.95
2019-06-27T19:57:57.802Z,98889.61
2019-06-27T20:00:28.724Z,98890.69
2019-06-27T20:02:59.956Z,98888.25
2019-06-27T20:05:30.610Z,98886.36
2019-06-27T20:08:17.249Z,98892.25
2019-06-27T20:10:33.601Z,98893.30
2019-06-27T20:13:04.179Z,98899.19
2019-06-27T20:15:34.895Z,98895.70
2019-06-27T20:18:05.632Z,98902.11
2019-06-27T20:20:36.244Z,98896.16
2019-06-27T20:23:06.914Z,98902.83
2019-06-27T20:25:37.615Z,98899.83
2019-06-27T20:28:08.265Z,98898.21
2019-06-27T20:30:38.937Z,98902.72
2019-06-27T20:33:09.603Z,98904.02
2019-06-27T20:35:40.324Z,98904.25
2019-06-27T20:38:10.960Z,98899.91
2019-06-27T20:40:41.562Z,98904.11
2019-06-27T20:43:12.153Z,98906.50
2019-06-27T20:45:45.018Z,98906.48
2019-06-27T20:48:15.601Z,98905.86
2019-06-27T20:50:46.253Z,98909.06
2019-06-27T20:53:16.806Z,98906.85
2019-06-27T20:55:48.910Z,98906.55
2019-06-27T20:58:19.462Z,98914.47
2019-06-27T21:00:50.093Z,98910.14
2019-06-27T21:03:22.783Z,98915.19
2019-06-27T21:05:53.376Z,98910.86
2019-06-27T21:08:23.952Z,98911.12
2019-06-27T21:10:54.561Z,98912.66
2019-06-27T21:13:25.163Z,98910.29
2019-06-27T21:15:55.806Z,98915.09
2019-06-27T21:18:26.493Z,98914.30
2019-06-27T21:20:57.073Z,98910.03
2019-06-27T21:23:27.642Z,98913.27
2019-06-27T21:25:58.284Z,98912.37
2019-06-27T21:28:30.321Z,98916.89
2019-06-27T21:31:01.015Z,98914.72
2019-06-27T21:33:31.692Z,98910.66
2019-06-27T21:36:02.316Z,98924.30
2019-06-27T21:38:32.957Z,98925.06
2019-06-27T21:41:03.556Z,98925.58
2019-06-27T21:43:34.169Z,98921.19
2019-06-27T21:46:10.721Z,98923.14
2019-06-27T21:48:41.472Z,98917.16
2019-06-27T21:51:13.339Z,98921.38
2019-06-27T21:53:43.839Z,98928.66
2019-06-27T21:56:14.529Z,98921.83
2019-06-27T21:58:47.639Z,98925.70
2019-06-27T22:01:18.426Z,98923.97
2019-06-27T22:03:48.975Z,98925.87
2019-06-27T22:06:19.604Z,98929.09
2019-06-27T22:08:50.190Z,98925.38
2019-06-27T22:11:21.431Z,98926.48
2019-06-27T22:13:51.992Z,98927.41
2019-06-27T22:16:22.652Z,98927.63
2019-06-27T22:18:53.562Z,98924.95
2019-06-27T22:21:24.479Z,98929.55
2019-06-27T22:23:55.271Z,98928.02
2019-06-27T22:26:25.936Z,98924.14
2019-06-27T22:28:56.491Z,98929.17
2019-06-27T22:31:29.330Z,98926.67
2019-06-27T22:33:59.962Z,98929.02
2019-06-27T22:36:33.655Z,98927.13
2019-06-27T22:39:36.475Z,98928.42
2019-06-27T22:42:13.748Z,98928.83
2019-06-27T22:45:02.090Z,98925.35
2019-06-27T22:47:50.617Z,98924.42
2019-06-27T22:50:45.223Z,98925.02
2019-06-27T22:53:20.908Z,98926.23
2019-06-27T22:55:52.047Z,98927.88
2019-06-27T22:58:22.630Z,98921.97
2019-06-27T23:00:53.184Z,98924.42
2019-06-27T23:03:23.764Z,98921.59
2019-06-27T23:05:54.347Z,98923.23
2019-06-27T23:08:25.020Z,98917.95
2019-06-27T23:10:55.571Z,98922.98
2019-06-27T23:13:26.366Z,98924.95
2019-06-27T23:15:56.921Z,98921.00
2019-06-27T23:18:30.025Z,98916.55
2019-06-27T23:21:00.822Z,98919.03
2019-06-27T23:23:32.545Z,98921.09
2019-06-27T23:26:03.110Z,98915.83
2019-06-27T23:28:34.072Z,98917.23
2019-06-27T23:31:04.748Z,98914.28
2019-06-27T23:33:35.320Z,98916.83
2019-06-27T23:36:05.928Z,98912.84
2019-06-27T23:38:37.832Z,98913.19
2019-06-27T23:41:08.376Z,98916.27
2019-06-27T23:43:41.508Z,98917.25
2019-06-27T23:46:31.009Z,98917.65
2019-06-27T23:49:01.860Z,98916.31
2019-06-27T23:51:32.418Z,98923.91
2019-06-27T23:54:03.055Z,98915.84
2019-06-27T23:56:33.797Z,98914.08
2019-06-27T23:59:05.867Z,98922.03
